Time;durP1;ratioP1;P1;durP2;ratioP2;P2;SDS_P1;SDS_P2;PMS_P1;PMS_P2;Temp;Humidity;BMP_temperature;BMP_pressure;BME280_temperature;BME280_humidity;BME280_pressure;Samples;Min_cycle;Max_cycle;Signal;HPM_P1;HPM_P2
2022/09/07 00:00:39;;;;;;;3.85;1.80;;;;;;;28.45;43.83;99503.72;4126593;28;20243;-34
2022/09/07 00:02:40;;;;;;;3.72;1.90;;;;;;;27.54;44.79;99512.06;4126801;28;20242;-34
2022/09/07 00:04:42;;;;;;;4.03;1.98;;;;;;;26.00;48.62;99482.06;4132431;28;20305;-31
2022/09/07 00:06:44;;;;;;;2.05;1.48;;;;;;;27.04;46.21;99476.41;4122951;28;20287;-35
2022/09/07 00:08:46;;;;;;;3.40;1.73;;;;;;;26.77;47.29;99465.78;4127630;28;20280;-32
2022/09/07 00:10:56;;;;;;;2.40;1.75;;;;;;;26.43;47.67;99460.84;4129508;28;20265;-32
2022/09/07 00:12:58;;;;;;;5.13;1.75;;;;;;;27.36;45.87;99467.06;4132630;28;20300;-33
2022/09/07 00:15:01;;;;;;;5.10;1.80;;;;;;;25.98;47.64;99473.31;4127367;28;20234;-34
2022/09/07 00:17:02;;;;;;;3.53;1.77;;;;;;;26.52;47.52;99459.28;4130015;28;20245;-32
2022/09/07 00:19:04;;;;;;;4.10;1.67;;;;;;;27.20;45.96;99466.31;4127674;28;20233;-31
2022/09/07 00:21:08;;;;;;;3.83;2.00;;;;;;;26.31;46.82;99484.84;4129034;28;20225;-34
2022/09/07 00:23:10;;;;;;;3.20;1.65;;;;;;;27.89;45.04;99469.34;4135733;28;20617;-31
2022/09/07 00:25:12;;;;;;;5.43;1.77;;;;;;;27.25;45.54;99482.66;4129674;28;20658;-35
2022/09/07 00:27:13;;;;;;;6.15;2.17;;;;;;;27.87;44.77;99468.81;4130161;28;20233;-35
2022/09/07 00:29:15;;;;;;;5.65;2.17;;;;;;;28.40;43.96;99484.63;4128852;28;20695;-34
2022/09/07 00:31:19;;;;;;;4.75;1.77;;;;;;;28.49;43.65;99477.44;4128427;28;20233;-33
2022/09/07 00:33:21;;;;;;;6.03;2.40;;;;;;;27.72;45.18;99485.25;4128907;28;20233;-33
2022/09/07 00:35:23;;;;;;;3.70;2.20;;;;;;;27.89;45.43;99465.78;4126952;28;20237;-33
2022/09/07 00:37:25;;;;;;;3.08;1.65;;;;;;;27.43;46.26;99461.31;4134400;28;20230;-34
2022/09/07 00:39:27;;;;;;;4.10;2.03;;;;;;;27.62;45.53;99467.81;4125695;28;20734;-33
2022/09/07 00:41:29;;;;;;;4.03;2.28;;;;;;;27.76;45.32;99459.84;4122608;28;20238;-35
2022/09/07 00:43:38;;;;;;;6.35;2.00;;;;;;;28.08;44.97;99447.63;4131297;28;20233;-33
2022/09/07 00:45:39;;;;;;;3.53;2.20;;;;;;;27.74;45.27;99464.75;4124251;28;20271;-36
2022/09/07 00:48:07;;;;;;;4.28;1.65;;;;;;;28.28;44.81;99451.38;4128058;28;20234;-32
2022/09/07 00:50:24;;;;;;;3.53;1.80;;;;;;;28.29;44.50;99451.09;4132401;28;20646;-34
2022/09/07 00:52:28;;;;;;;3.17;1.80;;;;;;;28.24;43.87;99470.25;4126481;28;20238;-33
2022/09/07 00:54:35;;;;;;;6.25;2.22;;;;;;;28.25;44.04;99471.88;4124805;28;20311;-37
2022/09/07 00:56:40;;;;;;;4.30;2.17;;;;;;;28.32;43.89;99464.16;4124038;28;20731;-33
2022/09/07 00:58:42;;;;;;;4.72;2.05;;;;;;;27.92;44.59;99467.94;4125902;28;20249;-34
2022/09/07 01:00:46;;;;;;;3.95;2.00;;;;;;;28.46;43.48;99482.66;4127557;28;20323;-32
2022/09/07 01:02:50;;;;;;;5.07;2.00;;;;;;;28.53;43.69;99494.09;4127927;28;20237;-33
2022/09/07 01:05:00;;;;;;;4.60;1.92;;;;;;;28.14;44.19;99503.06;4132097;28;20245;-33
2022/09/07 01:07:04;;;;;;;3.42;1.90;;;;;;;28.00;44.71;99502.88;4129089;28;20306;-36
2022/09/07 01:09:10;;;;;;;2.38;1.98;;;;;;;27.17;45.96;99515.97;4129009;28;20228;-34
2022/09/07 01:11:12;;;;;;;5.65;2.65;;;;;;;26.44;47.59;99505.31;4122210;28;20234;-33
2022/09/07 01:13:14;;;;;;;5.28;2.10;;;;;;;26.33;47.43;99490.81;4127177;28;20298;-33
2022/09/07 01:15:15;;;;;;;4.90;1.88;;;;;;;25.95;48.22;99504.66;4130383;28;20229;-33
2022/09/07 01:17:38;;;;;;;5.35;2.17;;;;;;;25.36;49.39;99518.50;4126800;28;20256;-32
2022/09/07 01:20:11;;;;;;;4.68;2.20;;;;;;;25.56;49.20;99502.28;4126085;28;20233;-35
2022/09/07 01:22:44;;;;;;;4.13;2.20;;;;;;;25.87;48.81;99501.59;4133976;28;20217;-35
2022/09/07 01:25:04;;;;;;;8.07;2.55;;;;;;;26.32;47.41;99500.94;4128031;28;20404;-32
2022/09/07 01:27:21;;;;;;;4.57;2.33;;;;;;;25.40;48.84;99503.28;4127729;28;20231;-31
2022/09/07 01:29:40;;;;;;;3.17;1.98;;;;;;;25.90;48.71;99496.44;4129988;28;20288;-32
2022/09/07 01:32:15;;;;;;;3.13;2.15;;;;;;;26.61;47.75;99488.72;4126711;28;20245;-33
2022/09/07 01:34:25;;;;;;;3.45;2.05;;;;;;;26.58;47.20;99500.16;4112393;28;20295;-34
2022/09/07 01:36:51;;;;;;;6.13;2.08;;;;;;;26.78;47.17;99494.72;4127177;28;20222;-37
2022/09/07 01:38:57;;;;;;;3.85;1.90;;;;;;;26.62;47.31;99499.34;4128212;28;20291;-33
2022/09/07 01:41:08;;;;;;;4.03;2.30;;;;;;;27.17;46.51;99509.72;4127252;28;20243;-34
2022/09/07 01:43:21;;;;;;;4.93;1.90;;;;;;;26.13;47.83;99510.69;4125493;28;20291;-33
2022/09/07 01:45:27;;;;;;;3.80;2.00;;;;;;;26.06;48.17;99519.09;4130369;28;20328;-34
2022/09/07 01:47:37;;;;;;;7.18;2.05;;;;;;;26.58;47.70;99498.25;4125257;28;20239;-33
2022/09/07 01:49:53;;;;;;;4.60;1.98;;;;;;;26.41;48.06;99512.09;4125519;28;20288;-34
2022/09/07 01:52:01;;;;;;;4.28;2.28;;;;;;;26.76;47.74;99526.91;4124596;28;20233;-33
2022/09/07 01:54:13;;;;;;;6.25;2.20;;;;;;;27.75;46.14;99526.50;4125957;28;20230;-36
2022/09/07 01:56:32;;;;;;;5.75;2.10;;;;;;;27.27;47.46;99515.13;4128760;28;20229;-33
2022/09/07 01:58:39;;;;;;;6.40;2.40;;;;;;;26.63;48.16;99525.50;4129872;28;20665;-34
2022/09/07 02:00:52;;;;;;;4.13;2.30;;;;;;;25.83;49.97;99527.72;4127377;28;20299;-35
2022/09/07 02:03:17;;;;;;;5.07;1.95;;;;;;;25.74;50.20;99535.56;4122072;28;20747;-36
2022/09/07 02:05:24;;;;;;;4.75;2.33;;;;;;;26.29;49.12;99517.81;4124749;28;20234;-36
2022/09/07 02:07:28;;;;;;;4.95;2.05;;;;;;;25.19;50.86;99524.09;4130086;28;20241;-33
2022/09/07 02:09:41;;;;;;;4.55;1.80;;;;;;;25.93;49.79;99509.53;4126754;28;20605;-34
2022/09/07 02:11:46;;;;;;;4.63;1.95;;;;;;;25.82;50.43;99520.66;4121323;28;20237;-34
2022/09/07 02:13:57;;;;;;;3.58;2.00;;;;;;;27.23;48.02;99525.78;4125848;28;20857;-34
2022/09/07 02:16:06;;;;;;;6.15;2.00;;;;;;;27.77;46.72;99531.66;4126653;28;20230;-34
2022/09/07 02:18:11;;;;;;;3.30;2.15;;;;;;;28.18;45.49;99535.06;4127402;28;20299;-34
2022/09/07 02:20:25;;;;;;;4.40;2.20;;;;;;;27.81;46.62;99538.22;4128441;28;20232;-34
2022/09/07 02:22:32;;;;;;;6.00;2.00;;;;;;;27.77;46.62;99554.34;4124813;28;20240;-34
2022/09/07 02:24:41;;;;;;;4.75;2.10;;;;;;;25.43;50.43;99565.34;4123686;28;21195;-35
2022/09/07 02:26:46;;;;;;;4.85;2.00;;;;;;;25.74;50.77;99530.94;4126640;28;20298;-31
2022/09/07 02:28:49;;;;;;;7.50;2.58;;;;;;;26.70;48.95;99525.25;4125333;28;20292;-34
2022/09/07 02:30:50;;;;;;;4.88;2.33;;;;;;;27.03;47.45;99534.78;4126174;28;20245;-36
2022/09/07 02:32:54;;;;;;;5.90;2.50;;;;;;;26.35;48.71;99559.50;4129741;28;20350;-33
2022/09/07 02:34:56;;;;;;;7.40;2.00;;;;;;;26.38;48.93;99544.53;4121219;28;20237;-33
2022/09/07 02:37:00;;;;;;;3.30;2.42;;;;;;;27.47;46.75;99538.84;4129647;28;20233;-35
2022/09/07 02:39:02;;;;;;;4.82;2.10;;;;;;;26.86;47.90;99550.63;4126636;28;20677;-35
2022/09/07 02:41:05;;;;;;;4.00;2.00;;;;;;;25.63;50.39;99558.38;4126370;28;20237;-33
2022/09/07 02:43:08;;;;;;;4.82;2.30;;;;;;;26.80;48.48;99548.97;4129959;28;20233;-32
2022/09/07 02:45:12;;;;;;;6.07;2.25;;;;;;;25.11;50.89;99551.78;4131019;28;20225;-36
2022/09/07 02:47:26;;;;;;;6.35;2.22;;;;;;;27.01;48.05;99531.53;4125122;28;20261;-33
2022/09/07 02:50:08;;;;;;;2.92;2.13;;;;;;;25.33;50.34;99562.53;4124287;28;20277;-33
2022/09/07 02:52:25;;;;;;;6.88;2.60;;;;;;;26.33;49.00;99540.69;4124297;28;20230;-32
2022/09/07 02:54:51;;;;;;;6.45;2.60;;;;;;;25.06;51.46;99547.13;4122512;28;20242;-34
2022/09/07 02:56:56;;;;;;;5.40;1.98;;;;;;;24.80;52.52;99537.91;4123749;28;20233;-34
2022/09/07 02:59:38;;;;;;;5.03;1.95;;;;;;;26.75;49.18;99527.16;4125470;28;20245;-32
2022/09/07 03:01:59;;;;;;;4.75;2.20;;;;;;;27.72;46.88;99542.59;4123609;28;20242;-35
2022/09/07 03:04:04;;;;;;;7.32;2.58;;;;;;;24.00;52.97;99541.13;4128346;28;20230;-34
2022/09/07 03:06:18;;;;;;;5.03;2.40;;;;;;;25.59;50.88;99519.97;4125754;28;20276;-32
2022/09/07 03:08:25;;;;;;;4.07;2.10;;;;;;;24.63;52.31;99522.53;4130133;28;20288;-33
2022/09/07 03:10:27;;;;;;;3.85;2.25;;;;;;;26.11;49.62;99507.41;4124040;28;20687;-36
2022/09/07 03:12:47;;;;;;;4.60;2.10;;;;;;;25.24;50.95;99521.41;4123784;28;20210;-35
2022/09/07 03:14:48;;;;;;;4.32;2.05;;;;;;;25.90;50.28;99515.50;4129907;28;20761;-35
2022/09/07 03:16:53;;;;;;;5.80;2.20;;;;;;;25.99;49.73;99529.44;4130226;28;20287;-35
2022/09/07 03:18:55;;;;;;;4.80;2.17;;;;;;;26.95;47.53;99527.16;4127097;28;20477;-35
2022/09/07 03:20:57;;;;;;;4.68;2.05;;;;;;;26.78;48.05;99524.72;4124899;28;20230;-34
2022/09/07 03:22:58;;;;;;;2.95;1.80;;;;;;;26.69;48.25;99529.88;4123849;28;20237;-32
2022/09/07 03:25:03;;;;;;;4.45;2.63;;;;;;;26.69;48.13;99540.81;4122768;28;20586;-36
2022/09/07 03:27:04;;;;;;;7.85;2.13;;;;;;;26.20;49.18;99533.06;4126792;28;20260;-34
2022/09/07 03:29:06;;;;;;;5.18;2.30;;;;;;;26.34;49.51;99533.38;4123496;28;20233;-34
2022/09/07 03:31:08;;;;;;;5.20;2.20;;;;;;;27.56;47.08;99536.34;4124286;28;20672;-32
2022/09/07 03:33:10;;;;;;;5.43;2.20;;;;;;;26.95;48.07;99531.81;4129373;28;20349;-32
2022/09/07 03:35:14;;;;;;;4.07;2.15;;;;;;;26.55;48.87;99528.78;4128728;28;20237;-33
2022/09/07 03:37:15;;;;;;;5.03;2.33;;;;;;;26.09;49.94;99517.75;4122532;28;20264;-32
2022/09/07 03:39:19;;;;;;;5.65;2.25;;;;;;;25.40;51.66;99523.16;4126972;28;20233;-34
2022/09/07 03:41:21;;;;;;;3.97;2.15;;;;;;;25.99;49.61;99531.34;4122801;28;20230;-33
2022/09/07 03:43:24;;;;;;;3.70;2.45;;;;;;;27.12;47.64;99526.09;4126991;28;20238;-34
2022/09/07 03:45:26;;;;;;;5.25;2.00;;;;;;;26.75;48.42;99518.97;4129314;28;20233;-31
2022/09/07 03:47:28;;;;;;;3.67;2.05;;;;;;;26.71;48.29;99526.91;4127880;28;20237;-33
2022/09/07 03:49:29;;;;;;;5.55;2.30;;;;;;;25.89;50.31;99526.66;4126793;28;20708;-35
2022/09/07 03:51:31;;;;;;;4.78;2.00;;;;;;;24.86;52.05;99536.88;4128114;28;20230;-32
2022/09/07 03:53:35;;;;;;;5.18;2.40;;;;;;;23.80;55.22;99498.25;4130773;28;20238;-33
2022/09/07 03:55:36;;;;;;;4.45;2.05;;;;;;;24.64;53.39;99494.25;4128433;28;20230;-33
2022/09/07 03:57:39;;;;;;;4.45;2.40;;;;;;;24.55;53.42;99503.97;4123508;28;20237;-33
2022/09/07 03:59:40;;;;;;;5.13;2.40;;;;;;;25.67;50.88;99508.59;4129013;28;20920;-33
2022/09/07 04:01:42;;;;;;;4.07;2.42;;;;;;;26.34;48.88;99519.72;4123852;28;20242;-32
2022/09/07 04:03:45;;;;;;;7.75;2.60;;;;;;;26.08;50.04;99527.84;4130947;28;20955;-32
2022/09/07 04:05:46;;;;;;;5.72;2.53;;;;;;;26.68;48.66;99521.97;4123022;28;20237;-33
2022/09/07 04:07:48;;;;;;;5.78;2.30;;;;;;;26.59;48.65;99531.78;4130573;28;20233;-32
2022/09/07 04:09:50;;;;;;;5.47;2.45;;;;;;;26.53;48.80;99537.22;4126714;28;20229;-34
2022/09/07 04:11:51;;;;;;;5.20;2.42;;;;;;;26.75;48.44;99538.88;4130348;28;20240;-34
2022/09/07 04:13:53;;;;;;;7.43;2.70;;;;;;;27.08;48.04;99537.53;4133554;28;20317;-37
2022/09/07 04:15:56;;;;;;;5.18;2.75;;;;;;;26.68;48.00;99557.44;4128769;28;20656;-34
2022/09/07 04:17:57;;;;;;;6.32;3.00;;;;;;;26.16;49.30;99551.03;4128604;28;20229;-33
2022/09/07 04:19:59;;;;;;;6.28;2.80;;;;;;;26.63;48.35;99552.78;4121872;28;20272;-31
2022/09/07 04:22:01;;;;;;;6.40;2.97;;;;;;;26.63;48.61;99551.97;4132400;28;20233;-31
2022/09/07 04:24:02;;;;;;;5.63;2.92;;;;;;;26.72;48.13;99555.78;4125059;28;20238;-35
2022/09/07 04:26:04;;;;;;;5.20;2.42;;;;;;;26.79;48.50;99556.34;4130770;28;20285;-31
2022/09/07 04:28:06;;;;;;;4.72;3.05;;;;;;;27.19;47.42;99568.34;4130345;28;20685;-31
2022/09/07 04:30:09;;;;;;;5.68;2.58;;;;;;;26.90;48.02;99563.44;4128826;28;20237;-31
2022/09/07 04:32:11;;;;;;;8.52;2.80;;;;;;;26.87;48.29;99563.16;4129398;28;20266;-34
2022/09/07 04:34:16;;;;;;;5.15;2.72;;;;;;;26.66;48.27;99578.72;4122551;28;20245;-31
2022/09/07 04:36:19;;;;;;;8.80;2.95;;;;;;;25.95;49.86;99571.94;4135062;28;20287;-33
2022/09/07 04:38:20;;;;;;;5.75;2.67;;;;;;;26.83;47.88;99551.97;4122179;28;20233;-31
2022/09/07 04:40:22;;;;;;;4.82;2.30;;;;;;;26.88;48.24;99553.91;4130371;28;20234;-31
2022/09/07 04:42:23;;;;;;;4.88;2.70;;;;;;;26.78;48.14;99559.34;4129815;28;20295;-31
2022/09/07 04:44:25;;;;;;;7.53;2.97;;;;;;;26.39;48.57;99568.00;4111082;28;20260;-37
2022/09/07 04:46:35;;;;;;;7.35;2.50;;;;;;;27.07;47.99;99544.09;4144313;28;20213;-33
2022/09/07 04:48:37;;;;;;;5.68;2.97;;;;;;;27.09;47.73;99549.28;4126363;28;20229;-32
2022/09/07 04:50:38;;;;;;;5.50;3.08;;;;;;;27.00;47.92;99556.34;4124777;28;20654;-31
2022/09/07 04:52:40;;;;;;;3.88;2.45;;;;;;;26.89;47.72;99553.63;4123094;28;20242;-33
2022/09/07 04:54:42;;;;;;;5.82;2.92;;;;;;;26.83;48.07;99562.09;4128288;28;20300;-32
2022/09/07 04:56:44;;;;;;;4.88;2.92;;;;;;;26.95;48.01;99565.34;4129510;28;20260;-32
2022/09/07 04:58:46;;;;;;;8.15;2.85;;;;;;;27.12;47.46;99564.28;4129765;28;20242;-33
2022/09/07 05:00:48;;;;;;;4.65;2.95;;;;;;;26.70;48.09;99566.16;4127373;28;20237;-33
2022/09/07 05:02:50;;;;;;;5.28;2.45;;;;;;;26.33;49.23;99556.25;4125613;28;20241;-32
2022/09/07 05:04:51;;;;;;;7.05;2.85;;;;;;;26.65;48.54;99555.25;4125209;28;20299;-31
2022/09/07 05:06:53;;;;;;;5.22;2.72;;;;;;;26.20;49.46;99556.75;4129892;28;20689;-32
2022/09/07 05:08:57;;;;;;;4.20;2.63;;;;;;;26.44;48.92;99548.94;4124784;28;20233;-32
2022/09/07 05:10:58;;;;;;;7.93;2.75;;;;;;;26.45;48.73;99570.44;4125873;28;20226;-33
2022/09/07 05:13:01;;;;;;;4.50;2.40;;;;;;;26.64;48.06;99569.94;4130064;28;20237;-31
2022/09/07 05:15:03;;;;;;;5.72;2.72;;;;;;;26.37;48.80;99571.00;4128579;28;20234;-31
2022/09/07 05:17:06;;;;;;;4.65;2.70;;;;;;;26.18;48.81;99578.00;4133729;28;20830;-34
2022/09/07 05:19:11;;;;;;;5.85;2.58;;;;;;;25.84;50.50;99568.28;4123737;28;20230;-31
2022/09/07 05:21:15;;;;;;;4.93;3.25;;;;;;;26.02;49.36;99569.78;4129393;28;20256;-31
2022/09/07 05:23:17;;;;;;;4.60;2.70;;;;;;;24.12;53.07;99570.88;4129061;28;20233;-30
2022/09/07 05:25:19;;;;;;;4.13;2.88;;;;;;;25.17;51.21;99562.44;4123123;28;20293;-33
2022/09/07 05:27:21;;;;;;;4.55;2.45;;;;;;;25.40;50.60;99563.97;4127793;28;20300;-31
2022/09/07 05:29:23;;;;;;;5.43;3.00;;;;;;;25.79;50.23;99551.94;4123220;28;20234;-31
2022/09/07 05:31:45;;;;;;;8.07;2.75;;;;;;;26.02;49.62;99564.31;4125653;28;20233;-35
2022/09/07 05:33:52;;;;;;;4.68;2.63;;;;;;;25.47;51.02;99561.03;4132129;28;20943;-34
2022/09/07 05:36:14;;;;;;;6.45;2.50;;;;;;;25.86;49.76;99592.53;4130342;28;20234;-33
2022/09/07 05:38:15;;;;;;;8.43;2.67;;;;;;;24.64;52.53;99581.25;4124810;28;20235;-32
2022/09/07 05:40:17;;;;;;;5.45;2.63;;;;;;;24.94;52.76;99562.81;4130514;28;20237;-31
2022/09/07 05:42:19;;;;;;;6.07;2.60;;;;;;;25.24;51.75;99567.66;4125121;28;20230;-33
2022/09/07 05:44:21;;;;;;;3.97;2.65;;;;;;;25.38;51.14;99576.22;4127186;28;20877;-31
2022/09/07 05:46:43;;;;;;;6.47;2.50;;;;;;;25.21;51.63;99577.16;4128688;28;20237;-32
2022/09/07 05:48:44;;;;;;;3.55;2.53;;;;;;;24.59;53.29;99573.03;4126577;28;20299;-32
2022/09/07 05:50:51;;;;;;;6.90;2.90;;;;;;;24.66;52.74;99586.44;4129940;28;20948;-32
2022/09/07 05:52:52;;;;;;;5.57;2.95;;;;;;;25.09;52.63;99583.84;4125387;28;20711;-34
2022/09/07 05:54:54;;;;;;;7.57;2.60;;;;;;;26.04;50.41;99575.78;4129415;28;20715;-32
2022/09/07 05:57:16;;;;;;;6.50;2.90;;;;;;;26.13;50.22;99595.13;4128591;28;20233;-32
2022/09/07 05:59:17;;;;;;;4.68;2.90;;;;;;;25.61;51.20;99599.50;4125912;28;20985;-33
2022/09/07 06:01:19;;;;;;;6.72;2.67;;;;;;;25.28;52.50;99590.53;4126746;28;20719;-34
2022/09/07 06:03:21;;;;;;;7.28;2.90;;;;;;;26.00;51.01;99582.84;4130771;28;20316;-32
2022/09/07 06:05:23;;;;;;;5.72;2.70;;;;;;;26.21;50.56;99600.09;4124671;28;20288;-32
2022/09/07 06:07:24;;;;;;;4.75;2.65;;;;;;;25.67;51.68;99600.34;4125197;28;20244;-33
2022/09/07 06:09:26;;;;;;;5.97;2.50;;;;;;;25.71;51.38;99596.84;4124593;28;20240;-32
2022/09/07 06:11:31;;;;;;;4.70;2.22;;;;;;;25.85;50.91;99597.19;4127822;28;20656;-33
2022/09/07 06:13:33;;;;;;;4.15;2.40;;;;;;;25.68;51.15;99615.59;4126795;28;20230;-32
2022/09/07 06:15:35;;;;;;;5.40;2.42;;;;;;;25.72;51.92;99601.19;4129450;28;20731;-32
2022/09/07 06:17:37;;;;;;;7.63;2.42;;;;;;;26.21;50.74;99610.16;4128366;28;20243;-35
2022/09/07 06:19:39;;;;;;;6.07;2.88;;;;;;;25.88;51.31;99620.31;4123144;28;20313;-32
2022/09/07 06:21:40;;;;;;;5.05;2.88;;;;;;;25.86;51.15;99626.03;4132482;28;20230;-32
2022/09/07 06:23:44;;;;;;;5.18;2.47;;;;;;;25.59;51.70;99628.88;4124784;28;20791;-32
2022/09/07 06:25:48;;;;;;;6.50;2.70;;;;;;;25.93;51.16;99623.91;4122580;28;20304;-33
2022/09/07 06:27:51;;;;;;;9.50;2.60;;;;;;;25.88;51.40;99628.50;4126128;28;20241;-31
2022/09/07 06:29:53;;;;;;;5.35;2.45;;;;;;;26.05;50.94;99617.44;4124937;28;20233;-31
2022/09/07 06:31:54;;;;;;;6.50;2.47;;;;;;;26.33;50.41;99630.63;4129144;28;20784;-32
2022/09/07 06:34:16;;;;;;;6.63;2.70;;;;;;;26.30;50.70;99630.34;4126285;28;20245;-32
2022/09/07 06:36:23;;;;;;;5.57;2.50;;;;;;;25.61;51.96;99645.78;4126924;28;20230;-32
2022/09/07 06:38:28;;;;;;;5.35;2.65;;;;;;;26.14;51.20;99637.66;4126030;28;20726;-33
2022/09/07 06:40:33;;;;;;;4.82;3.38;;;;;;;26.44;50.81;99642.41;4128248;28;20324;-31
2022/09/07 06:42:35;;;;;;;5.88;2.75;;;;;;;26.00;51.26;99650.13;4126967;28;20244;-32
2022/09/07 06:44:37;;;;;;;7.20;2.40;;;;;;;26.38;50.66;99642.66;4126855;28;20241;-34
2022/09/07 06:46:38;;;;;;;5.85;2.88;;;;;;;26.20;51.04;99647.50;4124753;28;20238;-32
2022/09/07 06:49:00;;;;;;;5.50;2.88;;;;;;;25.92;51.59;99645.97;4123567;28;20284;-31
2022/09/07 06:51:10;;;;;;;5.18;2.83;;;;;;;26.52;50.81;99636.47;4125446;28;20241;-32
2022/09/07 06:53:11;;;;;;;5.95;2.60;;;;;;;26.24;51.35;99655.97;4131101;28;20233;-32
2022/09/07 06:55:41;;;;;;;5.95;2.83;;;;;;;26.11;50.94;99666.25;4125634;28;20268;-32
2022/09/07 06:57:42;;;;;;;6.85;2.58;;;;;;;26.39;50.59;99658.75;4127176;28;20233;-32
2022/09/07 06:59:44;;;;;;;4.80;3.00;;;;;;;26.63;50.55;99653.69;4125306;28;20234;-32
2022/09/07 07:01:46;;;;;;;9.10;2.83;;;;;;;26.70;50.27;99650.69;4128607;28;20284;-31
2022/09/07 07:03:47;;;;;;;5.20;2.78;;;;;;;26.48;50.66;99643.50;4125913;28;20236;-32
2022/09/07 07:05:51;;;;;;;7.60;2.65;;;;;;;26.91;49.84;99646.13;4125607;28;20229;-32
2022/09/07 07:07:53;;;;;;;3.92;2.53;;;;;;;27.01;49.54;99646.13;4131156;28;20233;-32
2022/09/07 07:09:54;;;;;;;4.63;2.33;;;;;;;26.61;50.32;99652.31;4122929;28;20766;-32
2022/09/07 07:11:56;;;;;;;5.45;2.67;;;;;;;26.81;50.33;99657.00;4122583;28;20316;-34
2022/09/07 07:13:58;;;;;;;5.55;2.55;;;;;;;26.76;50.35;99646.06;4124677;28;20238;-32
2022/09/07 07:16:06;;;;;;;5.20;2.85;;;;;;;27.24;50.18;99654.88;4126594;28;20295;-31
2022/09/07 07:18:08;;;;;;;5.05;2.47;;;;;;;26.53;51.19;99645.47;4128925;28;20271;-33
2022/09/07 07:20:21;;;;;;;6.45;2.60;;;;;;;26.42;50.97;99655.50;4125079;28;20609;-33
2022/09/07 07:22:23;;;;;;;7.97;2.70;;;;;;;26.73;50.61;99641.16;4132240;28;20733;-32
2022/09/07 07:24:45;;;;;;;7.03;2.88;;;;;;;26.79;50.58;99651.81;4128080;28;20266;-31
2022/09/07 07:26:47;;;;;;;4.75;2.63;;;;;;;26.29;51.54;99659.53;4133217;28;20241;-31
2022/09/07 07:28:50;;;;;;;5.53;2.72;;;;;;;26.77;50.26;99659.44;4132063;28;20237;-32
2022/09/07 07:31:08;;;;;;;7.57;2.58;;;;;;;27.18;50.22;99647.78;4131220;28;20236;-33
2022/09/07 07:33:13;;;;;;;8.05;3.10;;;;;;;27.19;49.79;99655.69;4124299;28;20312;-31
2022/09/07 07:35:15;;;;;;;6.93;2.75;;;;;;;27.26;49.38;99660.88;4131484;28;21176;-31
2022/09/07 07:37:17;;;;;;;7.00;3.05;;;;;;;27.20;49.67;99657.34;4130041;28;20355;-32
2022/09/07 07:39:19;;;;;;;10.55;3.08;;;;;;;27.08;49.90;99663.06;4126993;28;20260;-31
2022/09/07 07:41:40;;;;;;;6.57;2.42;;;;;;;27.53;48.81;99654.31;4133888;28;20644;-31
2022/09/07 07:44:02;;;;;;;7.40;2.88;;;;;;;26.88;49.76;99666.56;4126849;28;20236;-32
2022/09/07 07:46:04;;;;;;;7.05;2.60;;;;;;;27.28;49.49;99671.53;4131819;28;20719;-35
2022/09/07 07:48:06;;;;;;;5.72;2.60;;;;;;;27.22;49.10;99670.72;4132342;28;20272;-32
2022/09/07 07:50:09;;;;;;;8.38;3.00;;;;;;;27.56;48.80;99661.97;4130009;28;20322;-33
2022/09/07 07:52:35;;;;;;;6.50;3.13;;;;;;;27.07;49.33;99676.97;4128650;28;20275;-32
2022/09/07 07:54:56;;;;;;;3.88;2.63;;;;;;;26.96;49.75;99669.84;4128385;28;20639;-32
2022/09/07 07:56:58;;;;;;;4.68;2.60;;;;;;;26.84;50.15;99662.75;4125177;28;20260;-31
2022/09/07 07:59:00;;;;;;;4.97;2.10;;;;;;;26.99;50.02;99675.56;4127822;28;20837;-33
2022/09/07 08:01:05;;;;;;;8.32;2.80;;;;;;;27.60;49.08;99663.06;4120704;28;20265;-32
2022/09/07 08:03:07;;;;;;;7.22;2.83;;;;;;;27.31;49.33;99671.81;4128243;28;20667;-33
2022/09/07 08:05:08;;;;;;;4.88;2.60;;;;;;;27.06;50.06;99673.44;4121298;28;20273;-32
2022/09/07 08:07:10;;;;;;;10.25;2.92;;;;;;;27.65;48.76;99660.34;4125821;28;20654;-32
2022/09/07 08:09:12;;;;;;;5.60;2.58;;;;;;;27.11;49.82;99666.34;4124348;28;20230;-32
2022/09/07 08:11:17;;;;;;;5.38;2.50;;;;;;;28.11;48.13;99662.97;4126660;28;20246;-32
2022/09/07 08:13:20;;;;;;;6.35;2.83;;;;;;;27.96;47.91;99669.31;4124627;28;20741;-30
2022/09/07 08:15:22;;;;;;;6.72;3.20;;;;;;;27.68;49.28;99689.03;4124078;28;20288;-31
2022/09/07 08:17:23;;;;;;;6.20;2.55;;;;;;;27.57;49.19;99689.00;4134541;28;20637;-30
2022/09/07 08:19:25;;;;;;;8.75;2.60;;;;;;;27.14;50.18;99682.19;4123369;28;20227;-31
2022/09/07 08:21:27;;;;;;;4.15;2.15;;;;;;;27.05;50.24;99685.41;4124715;28;20258;-34
2022/09/07 08:23:30;;;;;;;6.20;2.85;;;;;;;27.35;49.31;99672.09;4131333;28;20722;-31
2022/09/07 08:25:36;;;;;;;7.82;2.83;;;;;;;26.87;50.30;99683.19;4129115;28;20706;-31
2022/09/07 08:27:37;;;;;;;9.15;3.30;;;;;;;27.55;49.08;99679.44;4131928;28;20277;-31
2022/09/07 08:29:39;;;;;;;8.10;2.65;;;;;;;27.44;48.86;99681.38;4136605;28;20277;-32
2022/09/07 08:31:41;;;;;;;9.95;3.08;;;;;;;27.90;48.60;99662.22;4132003;28;20261;-32
2022/09/07 08:33:43;;;;;;;6.05;2.60;;;;;;;27.59;49.04;99678.63;4131262;28;20253;-32
2022/09/07 08:35:59;;;;;;;6.65;2.60;;;;;;;27.37;49.34;99684.38;4130497;28;20332;-33
2022/09/07 08:38:01;;;;;;;5.65;3.13;;;;;;;27.95;48.25;99678.59;4128992;28;20267;-31
2022/09/07 08:40:03;;;;;;;6.70;2.92;;;;;;;27.98;48.38;99682.69;4132866;28;20276;-34
2022/09/07 08:42:37;;;;;;;7.97;2.88;;;;;;;28.13;48.36;99676.38;4120634;28;20317;-32
2022/09/07 08:44:49;;;;;;;5.78;2.60;;;;;;;28.25;47.98;99667.88;4118700;28;20317;-31
2022/09/07 08:46:57;;;;;;;5.88;2.80;;;;;;;27.54;49.16;99689.56;4120553;28;20230;-32
2022/09/07 08:49:00;;;;;;;5.57;2.50;;;;;;;27.90;48.73;99695.00;4126928;28;20243;-32
2022/09/07 08:51:14;;;;;;;9.90;2.58;;;;;;;28.14;48.32;99680.72;4125475;28;20309;-31
2022/09/07 08:53:18;;;;;;;5.68;2.40;;;;;;;28.02;48.08;99691.97;4132569;28;20245;-32
2022/09/07 08:55:25;;;;;;;5.13;2.92;;;;;;;27.97;48.30;99686.50;4122106;28;20777;-31
2022/09/07 08:57:30;;;;;;;6.15;2.70;;;;;;;28.65;46.99;99686.03;4127024;28;20754;-31
2022/09/07 08:59:38;;;;;;;7.90;2.90;;;;;;;28.59;47.07;99683.59;4130202;28;20258;-31
2022/09/07 09:01:42;;;;;;;6.30;3.00;;;;;;;29.15;46.43;99679.72;4125744;28;20249;-31
2022/09/07 09:04:22;;;;;;;7.20;2.53;;;;;;;29.29;46.28;99676.06;4126118;28;20782;-31
2022/09/07 09:06:44;;;;;;;5.53;2.42;;;;;;;29.04;46.90;99693.47;4127047;28;20242;-32
2022/09/07 09:08:48;;;;;;;4.68;2.42;;;;;;;28.51;48.12;99696.75;4119392;28;20247;-31
2022/09/07 09:11:08;;;;;;;4.70;2.17;;;;;;;28.58;47.54;99677.31;4129612;28;20249;-32
2022/09/07 09:13:21;;;;;;;3.72;2.25;;;;;;;28.90;46.67;99678.81;4124604;28;20257;-32
2022/09/07 09:15:34;;;;;;;4.07;2.47;;;;;;;29.44;46.06;99669.66;4128516;28;20236;-33
2022/09/07 09:17:42;;;;;;;5.32;2.67;;;;;;;28.54;46.87;99696.22;4129224;28;20229;-31
2022/09/07 09:19:57;;;;;;;6.68;2.67;;;;;;;28.84;47.07;99679.94;4127028;28;20312;-32
2022/09/07 09:22:12;;;;;;;8.65;2.55;;;;;;;29.28;45.83;99681.84;4119019;28;20317;-31
2022/09/07 09:24:18;;;;;;;4.18;2.75;;;;;;;29.46;45.68;99681.13;4125129;28;20241;-32
2022/09/07 09:26:23;;;;;;;7.47;3.08;;;;;;;28.87;46.39;99691.13;4125077;28;20316;-31
2022/09/07 09:28:25;;;;;;;6.88;2.42;;;;;;;29.66;45.40;99665.63;4126970;28;20226;-33
2022/09/07 09:30:32;;;;;;;4.85;2.30;;;;;;;30.03;44.45;99664.16;4127679;28;20256;-31
2022/09/07 09:32:40;;;;;;;6.55;2.85;;;;;;;29.53;46.07;99669.84;4117658;28;20324;-31
2022/09/07 09:35:31;;;;;;;5.65;2.88;;;;;;;29.14;46.16;99656.19;4120340;28;20260;-32
2022/09/07 09:37:35;;;;;;;7.65;2.35;;;;;;;29.69;45.07;99673.25;4111669;28;20690;-34
2022/09/07 09:39:38;;;;;;;4.55;2.70;;;;;;;29.36;45.87;99666.72;4117910;28;20313;-31
2022/09/07 09:41:41;;;;;;;5.25;2.80;;;;;;;29.79;44.89;99670.47;4123564;28;20318;-32
2022/09/07 09:43:50;;;;;;;4.80;2.50;;;;;;;29.29;45.63;99665.13;4122298;28;20312;-31
2022/09/07 09:45:55;;;;;;;4.90;2.13;;;;;;;29.27;45.85;99655.53;4125405;28;20718;-33
2022/09/07 09:48:36;;;;;;;5.20;2.30;;;;;;;29.10;45.94;99645.81;4119896;28;20230;-31
2022/09/07 09:50:39;;;;;;;6.32;2.80;;;;;;;28.67;46.94;99664.66;4122332;28;20241;-31
2022/09/07 09:53:01;;;;;;;4.30;2.78;;;;;;;28.94;46.17;99635.25;4119610;28;20245;-31
2022/09/07 09:55:05;;;;;;;5.15;2.33;;;;;;;29.23;45.70;99644.34;4119484;28;20234;-31
2022/09/07 09:57:53;;;;;;;4.57;2.50;;;;;;;29.52;44.89;99645.47;4125734;28;20253;-33